Impacts METAR Board
IDs:

KGDJ - Granbury Muni, TX, US

Updated at: 1300 UTC 14 Dec 2019
Potential Impact None Slight Moderate High
Time 14/01Z 14/02Z 14/03Z 14/04Z 14/05Z 14/06Z 14/07Z 14/08Z 14/09Z 14/10Z 14/11Z 14/12Z 14/13Z
Temp51 46 45 42 42 40 39 39 37 37 35 36 36
Dewpt43 40 40 38 38 37 36 37 35 35 34 34 34
Altim29.87 29.87 29.88 29.90 29.88 29.89 29.89 29.91 29.90 29.89 29.89 29.90 29.90
VIS10 10 10 10 10 10 10 10 10 7 7 7 10
CIG-- -- -- -- -- -- -- -- -- -- -- -- --
CoverCLRCLRCLRCLRCLRCLRCLRCLRCLRCLRCLRCLRCLR
FltCatVFRVFRVFRVFRVFRVFRVFRVFRVFRVFRVFRVFRVFR
WX--------------------------
WDir0024000002900023000
WSpd0 0 4 0 0 0 0 3 0 0 3 0 0
WGst-- -- -- -- -- -- -- -- -- -- -- -- --
Raw hourly METARs
KGDJ 140055Z AUTO 00000KT 10SM CLR 11/06 A2987 RMK AO2 T01050061
KGDJ 140155Z AUTO 00000KT 10SM CLR 08/05 A2987 RMK AO2 T00750045
KGDJ 140255Z AUTO 24004KT 10SM CLR 07/05 A2988 RMK AO2 T00710046
KGDJ 140355Z AUTO 00000KT 10SM CLR 06/04 A2990 RMK AO2 T00560036
KGDJ 140455Z AUTO 00000KT 10SM CLR 06/03 A2988 RMK AO2 T00550033
KGDJ 140555Z AUTO 00000KT 10SM CLR 05/03 A2989 RMK AO2 T00450028 10130 20045 401950020
KGDJ 140655Z AUTO 00000KT 10SM CLR 04/02 A2989 RMK AO2 T00400024
KGDJ 140755Z AUTO 29003KT 10SM CLR 04/03 A2991 RMK AO2 T00370025
KGDJ 140855Z AUTO 00000KT 10SM CLR 03/01 A2990 RMK AO2 T00250014
KGDJ 140955Z AUTO 00000KT 7SM CLR 03/02 A2989 RMK AO2 T00300018
KGDJ 141055Z AUTO 23003KT 7SM CLR 02/01 A2989 RMK AO2 T00190009
KGDJ 141155Z AUTO 00000KT 7SM CLR 02/01 A2990 RMK AO2 T00210011 10045 20016
KGDJ 141255Z AUTO 00000KT 10SM CLR 02/01 A2990 RMK AO2 T00200010



Page loaded:  13:33 UTC  |   05:33 AM Pacific  |   06:33 AM Mountain  |   07:33 AM Central  |   08:33 AM Eastern

 

ADVISORIES

FORECASTS

FORECASTS

OBSERVATIONS

USER TOOLS

ABOUT US